McRae, Georgia
Current Conditions -  °F | °C
As of 7:15 AM on Sunday 21 Dec 2014 (Local Time) from KEZM Reporting Station
Overcast Overcast  
Wind Chill: 50°   Ceiling: 600
Heat Index: 50°   Visibility: 7mi
Dew Point: 50°   Wind: 6mph
Humidity: 100%   Direction: 60°ENE
Pressure: 30.2"   Gusts: NA
Location:  32.07°N, 82.9°W
Report Text: KEZM 211215Z AUTO 06005KT 7SM OVC006 10/10 A3020 RMK AO2 T01000100
Loading
Personal Weather Stations






























Interactive Weather Map New forecast layout! Learn more

10-Day Weather Forecast

Advertisements
Track Severe Weather on mobile